NCAR-RAP Real-Time Weather Data

Output produced by METARs form (17 December 2018  08:32 UTC)
found at http://weather.rap.ucar.edu/surface/
 
RJFG 170800Z 32014KT 9999 -RA FEW025 SCT040 BKN/// 12/06 Q1016
RJFG 170700Z 32014KT 300V360 9999 FEW018 SCT045 13/06 Q1015
RJFG 170600Z 32016G27KT 9999 FEW025 SCT040 BKN060 13/07 Q1014
RJFG 170500Z 30023KT 9999 FEW030 SCT045 15/06 Q1014
RJFG 170400Z 30021KT 9999 FEW030 15/07 Q1014
RJFG 170300Z 30024KT 9999 FEW025 15/07 Q1015
RJFG 170200Z 31019KT 9999 FEW025 15/08 Q1015
RJFG 170100Z 31018KT 9999 FEW020 SCT035 13/07 Q1015
RJFG 170000Z 31016KT 9999 FEW020 13/08 Q1015
RJFG 162330Z 31017KT 9999 FEW020 13/07 Q1015
RJFG 160900Z VRB02KT 4000 -RA PRFG BR FEW001 SCT025 BKN040 14/13 Q1016
RJFG 160832Z VRB01KT 4000 -RA BR FEW002 SCT025 BKN035 14/13 Q1016 RMK 1ST002 3CU025 5SC035 A3001
RJFG 160800Z 35003KT 310V020 8000 -SHRA FEW025 SCT070 BKN100 14/13 Q1016
RJFG 160724Z 33005KT 8000 -SHRA FEW003 SCT015 BKN100 14/13 Q1016 RMK 1ST003 3CU015 5AC100 A3002
RJFG 160700Z 34004KT 4000 -SHRA BR FEW002 SCT010 BKN030 14/13 Q1016
RJFG 160630Z 32005KT 2500 -SHRA BR FEW001 SCT007 BKN010 14/13 Q1017 RMK 1ST001 3ST007 5CU010 A3004
RJFG 160614Z 32004KT 4000 R31/1400VP1800U -SHRA BR FEW002 SCT006 BKN010 14/13 Q1017 RMK 1ST002 3ST006 5CU010 A3004
RJFG 160600Z 32004KT 280V350 1500 R31/1200V1800D +SHRA BR FEW001 SCT004 BKN006 14/13 Q1017
RJFG 160533Z 26003KT 210V320 2000 R31/1200VP1800D SHRA BR FEW001 SCT004 BKN006 14/14 Q1018 RMK 1ST001 3ST004 5ST006 A3006
RJFG 160512Z 24006KT 200V280 1500 R31/P1800N SHRA BR FEW001 SCT006 BKN010 14/13 Q1018 RMK 1ST001 3ST006 5CU010 A3007
RJFG 160500Z 22005KT 170V280 3000 SHRA BR FEW001 SCT010 BKN015 14/13 Q1018
RJFG 160420Z 19004KT 160V220 3000 SHRA BR FEW015 SCT020 BKN030 14/13 Q1018 RMK 1CU015 3CU020 5CU030 A3007
RJFG 160400Z 18005KT 140V220 8000 -RA FEW020 SCT035 BKN050 15/13 Q1018
RJFG 160300Z 12005KT 9999 -RA FEW025 SCT045 BKN070 15/13 Q1020
RJFG 160200Z 16010KT 130V200 5000 -RA BR FEW010 SCT015 BKN035 14/12 Q1021
RJFG 160100Z 12006KT 9999 -RA FEW025 BKN035 BKN070 14/10 Q1022
RJFG 160000Z 12007KT 9999 -RA FEW025 SCT040 BKN070 14/09 Q1022
RJFG 152330Z 13006KT 9999 -RA FEW030 BKN070 13/09 Q1022
RJFG 150900Z VRB02KT 9999 FEW035 09/05 Q1027
RJFG 150800Z 08003KT 020V120 9999 FEW035 11/04 Q1026
RJFG 150700Z VRB05KT 9999 FEW025 SCT035 12/04 Q1026
RJFG 150600Z 07006KT 360V120 9999 FEW025 SCT035 13/04 Q1026
RJFG 150500Z 07005KT 350V130 9999 FEW025 SCT035 13/05 Q1026
RJFG 150400Z 08004KT 340V140 9999 FEW025 SCT035 13/04 Q1027
RJFG 150300Z 11008KT 050V160 9999 FEW025 SCT035 15/06 Q1028
RJFG 150200Z VRB05KT 9999 FEW025 12/06 Q1028
RJFG 150100Z 01004KT 310V070 9999 FEW025 11/07 Q1029
RJFG 150000Z 36004KT 300V070 9999 FEW020 SCT040 11/06 Q1029
RJFG 142330Z 36003KT 300V070 9999 FEW020 SCT040 10/06 Q1029